Home > Products > Valid Products > MTR

000
SAUS43 KBIS 261253
MTRN60
METAR KN60 261252Z AUTO 27010KT 15/12 A2986 RMK AO1 SLP107 T01500122





000
SAUS43 KBIS 261153
MTRN60
METAR KN60 261152Z AUTO 27008KT 13/11 A2985 RMK AO1 SLP101 T01330111
10156 20111 53010





000
SAUS43 KBIS 261054
MTRN60
METAR KN60 261052Z AUTO 24005KT 12/11 A2983 RMK AO1 SLP096 T01170106





000
SAUS43 KBIS 260953
MTRN60
METAR KN60 260952Z AUTO 27006KT 12/11 A2981 RMK AO1 SLP091 T01170106





000
SAUS43 KBIS 260853
MTRN60
METAR KN60 260852Z AUTO 32008KT 13/12 A2982 RMK AO1 SLP091 T01330117
53007





000
SAUS43 KBIS 260754
MTRN60
METAR KN60 260752Z AUTO 32009KT 15/13 A2980 RMK AO1 SLP085 T01500128





000
SAUS43 KBIS 260653
MTRN60
METAR KN60 260652Z AUTO 19004KT 15/12 A2978 RMK AO1 SLP079 T01500122





000
SAUS43 KBIS 260554
MTRN60
METAR KN60 260552Z AUTO 15004KT 16/14 A2979 RMK AO1 SLP083 T01560139
10250 20150 402500150 51007





000
SAUS43 KBIS 260454
MTRN60
METAR KN60 260452Z AUTO 00000KT 16/14 A2979 RMK AO1 SLP082 T01560139





000
SAUS43 KBIS 260354
MTRN60
METAR KN60 260352Z AUTO 14004KT 18/15 A2978 RMK AO1 SLP079 T01780150





000
SAUS43 KBIS 260253
MTRN60
METAR KN60 260252Z AUTO 12003KT 18/16 A2977 RMK AO1 SLP076 T01830156
53001





000
SAUS43 KBIS 260154
MTRN60
METAR KN60 260152Z AUTO 10005KT 21/16 A2976 RMK AO1 SLP072 T02110161





000
SAUS43 KBIS 260053
MTRN60
METAR KN60 260052Z AUTO 12006KT 23/14 A2976 RMK AO1 SLP072 T02330139





000
SAUS43 KBIS 252353
MTRN60
METAR KN60 252352Z AUTO 12003KT 25/13 A2977 RMK AO1 SLP074 T02500128
10250 20233





000
SAUS43 KBIS 252254
MTRN60
METAR KN60 252253Z AUTO 18003KT 25/11 A2979 RMK AO1 SLP080 T02500111





000
SAUS43 KBIS 252154
MTRN60
METAR KN60 252152Z AUTO 26004KT 25/12 A2981 RMK AO1 SLP084 T02500122





000
SAUS43 KBIS 252054
MTRN60
METAR KN60 252052Z AUTO 24009KT 24/11 A2982 RMK AO1 SLP091 T02390111
56010





000
SAUS43 KBIS 251954
MTRN60
METAR KN60 251952Z AUTO 28009KT 24/10 A2984 RMK AO1 SLP095 T02390100





000
SAUS43 KBIS 251854
MTRN60
METAR KN60 251852Z AUTO 28009G17KT 24/10 A2983 RMK AO1 SLP094
T02390100





000
SAUS43 KBIS 251754
MTRN60
METAR KN60 251752Z AUTO 31010KT 23/10 A2986 RMK AO1 SLP101 T02330100
10233 20150 58003





000
SAUS43 KBIS 251653
MTRN60
METAR KN60 251652Z AUTO 28015KT 22/11 A2987 RMK AO1 SLP106 T02220111





000
SAUS43 KBIS 251554
MTRN60
METAR KN60 251552Z AUTO 29007KT 22/11 A2986 RMK AO1 SLP103 T02220111





000
SAUS43 KBIS 251453
MTRN60
METAR KN60 251452Z AUTO 30010KT 20/12 A2987 RMK AO1 SLP107 T02000117
51012





000
SAUS43 KBIS 251354
MTRN60
METAR KN60 251352Z AUTO 30009KT 18/12 A2986 RMK AO1 SLP107 T01780122





000
SAUS43 KBIS 251253
MTRN60
METAR KN60 251252Z AUTO 31008KT 16/13 A2984 RMK AO1 SLP100 T01610128





000
SAUS43 KBIS 251154
MTRN60
METAR KN60 251152Z AUTO 32005KT 16/13 A2983 RMK AO1 SLP094 70060
T01560133 10206 20150 53020





000
SAUS43 KBIS 251053
MTRN60
METAR KN60 251052Z AUTO 32013KT 18/15 A2981 RMK AO1 SLP086 T01830150





000
SAUS43 KBIS 250954
MTRN60
METAR KN60 250952Z AUTO 25007KT 19/19 A2978 RMK AO1 SLP078 T01940189





000
SAUS43 KBIS 250853
MTRN60
METAR KN60 250852Z AUTO 13005KT 19/19 A2977 RMK AO1 SLP072 T01940189
53009





000
SAUS43 KBIS 250754
MTRN60
METAR KN60 250752Z AUTO 04005KT 19/18 A2974 RMK AO1 SLP063 T01940183





000
SAUS43 KBIS 250653
MTRN60
METAR KN60 250652Z AUTO 06005KT 21/19 A2974 RMK AO1 SLP061 T02060194





000
SAUS43 KBIS 250554
MTRN60
METAR KN60 250552Z AUTO 33003KT 21/19 A2974 RMK AO1 SLP061 T02060194
10250 20206 402500167 53001





000
SAUS43 KBIS 250453
MTRN60
METAR KN60 250452Z AUTO 10008KT 21/19 A2968 RMK AO1 SLP040 T02110194





000
SAUS43 KBIS 250354
MTRN60
METAR KN60 250352Z AUTO 09007KT 21/19 A2973 RMK AO1 PRESFR SLP058
T02110194





000
SAUS43 KBIS 250253
MTRN60
METAR KN60 250252Z AUTO 00000KT 21/19 A2974 RMK AO1 SLP063 T02110194
53009





000
SAUS43 KBIS 250154
MTRN60
METAR KN60 250152Z AUTO 14006KT 22/19 A2968 RMK AO1 SLP045 T02220194





000
SAUS43 KBIS 250053
MTRN60
METAR KN60 250052Z AUTO 15011KT 24/19 A2968 RMK AO1 SLP042 T02390194





000
SAUS43 KBIS 242354 COR
MTRN60
METAR KN60 242352Z AUTO 13010G19KT 25/19 A2971 RMK AO1 SLP051 60004
T02500194 10250 20206 56056





000
SAUS43 KBIS 242253
MTRN60
METAR KN60 242252Z AUTO 13016G24KT 23/20 A2972 RMK AO1 SLP058
T02330200





000
SAUS43 KBIS 242153
MTRN60
METAR KN60 242152Z AUTO 11009KT 21/19 A2979 RMK AO1 SLP081 P0004
T02110194





000
SAUS43 KBIS 242054
MTRN60
METAR KN60 242052Z AUTO 25013KT 22/18 A2989 RMK AO1 PRESRR SLP114
T02220183 53018





000
SAUS43 KBIS 241954
MTRN60
METAR KN60 241952Z AUTO 17012G21KT 23/18 A2982 RMK AO1 PRESRR SLP090
T02330178





000
SAUS43 KBIS 241854
MTRN60
METAR KN60 241852Z AUTO 15017G25KT 24/18 A2981 RMK AO1 PK WND
15027/1808 SLP085 T02440183





000
SAUS43 KBIS 241753
MTRN60
METAR KN60 241752Z AUTO 15017G25KT 24/18 A2983 RMK AO1 PK WND
16026/1659 SLP093 60056 T02390178 10244 20167 56020





000
SAUS43 KBIS 241654
MTRN60
METAR KN60 241652Z AUTO 14020G25KT 23/17 A2985 RMK AO1 PK WND
15027/1642 SLP100 T02330172





000
SAUS43 KBIS 241554
MTRN60
METAR KN60 241552Z AUTO 14017G24KT 21/17 A2986 RMK AO1 SLP102
T02110172





000
SAUS43 KBIS 241453
MTRN60
METAR KN60 241452Z AUTO 11014G21KT 18/17 A2989 RMK AO1 PK WND
13026/1419 SLP118 60056 T01780167 58006





000
SAUS43 KBIS 241354
MTRN60
METAR KN60 241352Z AUTO 10012G19KT 17/16 A2993 RMK AO1 SLP128 P0056
T01670161





000
SAUS43 KBIS 241253
MTRN60
METAR KN60 241252Z AUTO 31022G37KT 18/16 A3009 RMK AO1 PK WND
30037/1244 SLP180 T01830156





000
SAUS43 KBIS 241155
MTRN60
METAR KN60 241152Z AUTO 13011KT 19/14 A2991 RMK AO1 SLP120 T01890144
10200 20178 58023





000
SAUS43 KBIS 241053
MTRN60
METAR KN60 241052Z AUTO 11007KT 18/14 A2995 RMK AO1 SLP133 T01780144





000
SAUS43 KBIS 240954
MTRN60
METAR KN60 240952Z AUTO 13009KT 18/14 A2996 RMK AO1 SLP135 T01830144





000
SAUS43 KBIS 240853
MTRN60
METAR KN60 240852Z AUTO 12011KT 18/15 A2998 RMK AO1 SLP146 T01830150
58027





000
SAUS43 KBIS 240754
MTRN60
METAR KN60 240752Z AUTO 13009KT 19/16 A3003 RMK AO1 SLP160 T01890156





000
SAUS43 KBIS 240654
MTRN60
METAR KN60 240652Z AUTO 13011KT 19/16 A3005 RMK AO1 SLP168 T01940156





000
SAUS43 KBIS 240554
MTRN60
METAR KN60 240552Z AUTO 13010KT 20/16 A3007 RMK AO1 SLP174 T02000161
10261 20200 402670178 56007





000
SAUS43 KBIS 240453
MTRN60
METAR KN60 240452Z AUTO 13011KT 20/17 A3007 RMK AO1 SLP176 T02000172





000
SAUS43 KBIS 240354
MTRN60
METAR KN60 240352Z AUTO 12011G18KT 22/18 A3008 RMK AO1 SLP178
T02170178





000
SAUS43 KBIS 240253
MTRN60
METAR KN60 240252Z AUTO 12008KT 22/18 A3009 RMK AO1 SLP182 T02220183
56010





000
SAUS43 KBIS 240154
MTRN60
METAR KN60 240152Z AUTO 11008KT 23/18 A3010 RMK AO1 SLP184 T02330183





000
SAUS43 KBIS 240053
MTRN60
METAR KN60 240052Z AUTO 12009KT 25/18 A3010 RMK AO1 SLP186 T02500183





000
SAUS43 KBIS 232354
MTRN60
METAR KN60 232352Z AUTO 13011KT 26/18 A3012 RMK AO1 SLP193 T02610183
10267 20244 56022





000
SAUS43 KBIS 232254
MTRN60
METAR KN60 232252Z AUTO 14012KT 26/18 A3015 RMK AO1 SLP202 T02610178





000
SAUS43 KBIS 232154
MTRN60
METAR KN60 232152Z AUTO 14012G17KT 27/19 A3016 RMK AO1 SLP204
T02670189





000
SAUS43 KBIS 232054
MTRN60
METAR KN60 232052Z AUTO 13010G18KT 26/19 A3019 RMK AO1 SLP215
T02610189 58015





000
SAUS43 KBIS 231954
MTRN60
METAR KN60 231952Z AUTO 17011KT 26/19 A3021 RMK AO1 SLP223 T02610189





000
SAUS43 KBIS 231853
MTRN60
METAR KN60 231852Z AUTO 16012KT 26/19 A3023 RMK AO1 SLP228 T02560189





000
SAUS43 KBIS 231754
MTRN60
METAR KN60 231752Z AUTO 14010KT 24/19 A3024 RMK AO1 SLP232 T02390189
10244 20178 58004





000
SAUS43 KBIS 231653
MTRN60
METAR KN60 231652Z AUTO 13010G16KT 24/18 A3025 RMK AO1 SLP236
T02390183





000
SAUS43 KBIS 231554
MTRN60
METAR KN60 231552Z AUTO 16007KT 23/18 A3025 RMK AO1 SLP238 T02330183





000
SAUS43 KBIS 231453
MTRN60
METAR KN60 231452Z AUTO 14010KT 22/18 A3025 RMK AO1 SLP236 T02220178
58001





000
SAUS43 KBIS 231354
MTRN60
METAR KN60 231352Z AUTO 14009KT 21/18 A3026 RMK AO1 SLP240 T02110178





    US Dept of Commerce
    National Oceanic and Atmospheric Administration
    National Weather Service
    1325 East West Highway
    Silver Spring, MD 20910
    Page Author: NWS Internet Services Team
Disclaimer
Information Quality
Credits
Glossary
Privacy Policy
Freedom of Information Act (FOIA)
About Us
Career Opportunities